MAPA DE AEROPUERTO

INFORMACIÓN METAR y TAF

METAR FOR MDSD
ADDS - METARS form results

(1247 UTC 26 February 2021)
Data provider http://aviationweather.gov/metar/data/
 
METAR text: MDSD 261200Z 01004KT 9999 FEW018 21/18 Q1018
Conditions at: MDSD (CAUCEDO/DE LAS , DO) observed 1200 UTC 26 February 2021
Temperature: 21.0°C (70°F)
Dewpoint: 18.0°C (64°F) [RH = 83%]
Pressure (altimeter): 30.06 inches Hg (1018.0 mb)
Winds: from the N (10 degrees) at 5 MPH (4 knots; 2.1 m/s)
Visibility: 6 or more miles (10+ km)
Ceiling: at least 12,000 feet AGL
Clouds: few clouds at 1800 feet AGL
Weather: no significant weather observed at this time

Forecast for: MDSD (CAUCEDO/DE LAS , DO)
Text: TAF MDSD 261000Z 2612/2712 01006KT 9999 FEW018
Forecast period: 1200 to 1500 UTC 26 February 2021
Forecast type: FROM: standard forecast or significant change
Winds: from the N (10 degrees) at 7 MPH (6 knots; 3.1 m/s)
Visibility: 6 or more miles (10+ km)
Ceiling: at least 12,000 feet AGL
Clouds: few clouds at 1800 feet AGL
Weather: no significant weather forecast for this period
Text: BECMG 2615/2617 13008KT
Forecast period: 1500 UTC 26 February 2021 to 1200 UTC 27 February 2021
Forecast type: BECOMING: Conditions expected to become as follows by 1700 UTC 26 February 2021
Winds: from the SE (130 degrees) at 9 MPH (8 knots; 4.1 m/s)
Visibility: 6 or more miles (10+ km)
Ceiling: at least 12,000 feet AGL
Clouds: few clouds at 1800 feet AGL
Weather: no significant weather forecast for this period